createdAt,value
2018-03-06T00:01:46.862Z,86.44
2018-03-06T00:04:17.683Z,86.26
2018-03-06T00:06:48.524Z,86.26
2018-03-06T00:09:19.356Z,86.69
2018-03-06T00:11:50.193Z,86.67
2018-03-06T00:14:21.065Z,86.62
2018-03-06T00:16:51.895Z,86.92
2018-03-06T00:19:22.689Z,86.66
2018-03-06T00:21:53.510Z,86.81
2018-03-06T00:24:24.347Z,86.67
2018-03-06T00:26:55.169Z,86.56
2018-03-06T00:29:26.007Z,86.33
2018-03-06T00:31:56.815Z,86.78
2018-03-06T00:34:27.689Z,87.07
2018-03-06T00:36:58.508Z,87.47
2018-03-06T00:39:29.325Z,87.61
2018-03-06T00:42:00.129Z,87.48
2018-03-06T00:44:30.960Z,87.78
2018-03-06T00:47:02.560Z,87.81
2018-03-06T00:49:33.434Z,87.94
2018-03-06T00:52:04.256Z,87.74
2018-03-06T00:54:35.070Z,88.09
2018-03-06T00:57:05.860Z,88.25
2018-03-06T00:59:36.710Z,88.16
2018-03-06T01:02:07.529Z,88.32
2018-03-06T01:04:38.344Z,88.64
2018-03-06T01:07:09.137Z,88.61
2018-03-06T01:09:39.953Z,88.69
2018-03-06T01:12:10.776Z,88.73
2018-03-06T01:14:41.574Z,88.82
2018-03-06T01:17:12.366Z,88.83
2018-03-06T01:19:43.183Z,88.98
2018-03-06T01:22:13.990Z,88.82
2018-03-06T01:24:44.857Z,88.80
2018-03-06T01:27:15.679Z,88.94
2018-03-06T01:29:46.538Z,88.95
2018-03-06T01:32:17.365Z,89.13
2018-03-06T01:34:48.206Z,89.08
2018-03-06T01:37:19.025Z,89.01
2018-03-06T01:39:49.897Z,88.94
2018-03-06T01:42:20.743Z,88.92
2018-03-06T01:44:51.625Z,89.03
2018-03-06T01:47:22.492Z,88.86
2018-03-06T01:49:53.326Z,88.83
2018-03-06T01:52:24.160Z,88.87
2018-03-06T01:54:54.997Z,88.88
2018-03-06T01:57:25.793Z,88.89
2018-03-06T01:59:56.700Z,88.92
2018-03-06T02:02:27.514Z,89.16
2018-03-06T02:04:58.578Z,89.01
2018-03-06T02:07:29.398Z,89.05
2018-03-06T02:10:00.262Z,89.12
2018-03-06T02:12:31.107Z,88.86
2018-03-06T02:15:01.943Z,89.05
2018-03-06T02:17:32.789Z,89.10
2018-03-06T02:20:03.629Z,89.16
2018-03-06T02:22:34.488Z,89.15
2018-03-06T02:25:05.302Z,88.71
2018-03-06T02:27:36.115Z,89.03
2018-03-06T02:30:07.778Z,88.99
2018-03-06T02:32:38.580Z,89.00
2018-03-06T02:35:09.415Z,89.10
2018-03-06T02:37:40.207Z,89.17
2018-03-06T02:40:11.057Z,89.09
2018-03-06T02:42:41.911Z,89.21
2018-03-06T02:45:12.749Z,88.95
2018-03-06T02:47:43.587Z,89.08
2018-03-06T02:50:14.403Z,89.26
2018-03-06T02:52:45.218Z,89.24
2018-03-06T02:55:16.039Z,89.39
2018-03-06T02:57:46.886Z,89.60
2018-03-06T03:00:17.812Z,89.55
2018-03-06T03:02:48.645Z,89.61
2018-03-06T03:05:19.588Z,89.56
2018-03-06T03:07:50.485Z,89.56
2018-03-06T03:10:21.412Z,89.41
2018-03-06T03:12:52.263Z,89.27
2018-03-06T03:15:23.160Z,89.07
2018-03-06T03:17:54.038Z,89.12
2018-03-06T03:20:24.973Z,88.88
2018-03-06T03:22:56.858Z,88.67
2018-03-06T03:25:27.767Z,88.61
2018-03-06T03:27:58.705Z,88.56
2018-03-06T03:30:29.673Z,88.59
2018-03-06T03:33:00.519Z,88.22
2018-03-06T03:35:31.407Z,88.42
2018-03-06T03:38:02.269Z,88.38
2018-03-06T03:40:33.136Z,88.30
2018-03-06T03:43:04.037Z,88.20
2018-03-06T03:45:34.870Z,88.18
2018-03-06T03:48:05.723Z,88.13
2018-03-06T03:50:36.678Z,88.29
2018-03-06T03:53:07.566Z,88.21
2018-03-06T03:55:38.498Z,88.39
2018-03-06T03:58:09.335Z,88.34
2018-03-06T04:00:40.187Z,88.44
2018-03-06T04:03:11.047Z,88.18
2018-03-06T04:05:41.910Z,88.46
2018-03-06T04:08:12.783Z,88.40
2018-03-06T04:10:43.654Z,88.60
2018-03-06T04:13:14.583Z,88.42
2018-03-06T04:15:45.466Z,88.48
2018-03-06T04:18:16.328Z,88.62
2018-03-06T04:20:47.165Z,88.63
2018-03-06T04:23:18.043Z,88.58
2018-03-06T04:25:49.020Z,88.59
2018-03-06T04:28:20.802Z,88.68
2018-03-06T04:30:51.774Z,88.85
2018-03-06T04:33:22.664Z,88.50
2018-03-06T04:35:53.631Z,88.37
2018-03-06T04:38:24.486Z,88.46
2018-03-06T04:40:55.424Z,88.24
2018-03-06T04:43:26.290Z,88.34
2018-03-06T04:45:57.175Z,88.47
2018-03-06T04:48:28.038Z,88.53
2018-03-06T04:50:59.896Z,88.65
2018-03-06T04:53:30.735Z,88.72
2018-03-06T04:56:01.647Z,88.71
2018-03-06T04:58:32.618Z,88.43
2018-03-06T05:01:04.503Z,88.52
2018-03-06T05:03:35.397Z,88.29
2018-03-06T05:06:06.327Z,88.28
2018-03-06T05:08:37.194Z,88.12
2018-03-06T05:11:08.027Z,88.00
2018-03-06T05:13:38.856Z,88.11
2018-03-06T05:16:09.809Z,87.92
2018-03-06T05:18:40.755Z,87.97
2018-03-06T05:21:11.646Z,87.73
2018-03-06T05:23:42.481Z,87.85
2018-03-06T05:26:13.388Z,87.70
2018-03-06T05:28:44.246Z,87.82
2018-03-06T05:31:15.105Z,87.85
2018-03-06T05:33:45.938Z,87.86
2018-03-06T05:36:16.824Z,88.12
2018-03-06T05:38:47.659Z,87.83
2018-03-06T05:41:18.525Z,87.73
2018-03-06T05:43:49.349Z,87.97
2018-03-06T05:46:20.249Z,87.35
2018-03-06T05:48:51.083Z,87.42
2018-03-06T05:51:21.912Z,87.60
2018-03-06T05:53:52.822Z,87.41
2018-03-06T05:56:23.711Z,87.49
2018-03-06T05:58:54.542Z,87.28
2018-03-06T06:01:25.380Z,87.18
2018-03-06T06:03:56.227Z,87.32
2018-03-06T06:06:27.101Z,87.14
2018-03-06T06:08:57.922Z,87.09
2018-03-06T06:11:29.566Z,86.96
2018-03-06T06:14:00.466Z,86.85
2018-03-06T06:16:31.343Z,86.84
2018-03-06T06:19:02.140Z,86.42
2018-03-06T06:21:32.980Z,86.24
2018-03-06T06:24:03.841Z,86.19
2018-03-06T06:26:34.675Z,85.66
2018-03-06T06:29:05.528Z,85.09
2018-03-06T06:31:36.342Z,84.89
2018-03-06T06:34:07.218Z,84.66
2018-03-06T06:36:38.023Z,84.59
2018-03-06T06:39:08.921Z,84.05
2018-03-06T06:41:39.838Z,83.59
2018-03-06T06:44:10.639Z,82.87
2018-03-06T06:46:41.466Z,82.54
2018-03-06T06:49:12.316Z,82.19
2018-03-06T06:51:43.134Z,82.15
2018-03-06T06:54:13.949Z,81.04
2018-03-06T06:56:44.756Z,80.73
2018-03-06T06:59:15.548Z,81.21
2018-03-06T07:01:46.340Z,80.16
2018-03-06T07:04:17.109Z,79.97
2018-03-06T07:06:47.948Z,78.77
2018-03-06T07:09:18.750Z,78.59
2018-03-06T07:11:49.559Z,76.99
2018-03-06T07:14:20.358Z,77.11
2018-03-06T07:16:51.201Z,76.85
2018-03-06T07:19:22.041Z,75.97
2018-03-06T07:21:52.845Z,75.08
2018-03-06T07:24:23.653Z,74.07
2018-03-06T07:26:54.486Z,73.19
2018-03-06T07:29:25.252Z,73.58
2018-03-06T07:31:56.049Z,72.79
2018-03-06T07:34:26.837Z,72.95
2018-03-06T07:36:57.689Z,73.10
2018-03-06T07:39:28.464Z,73.23
2018-03-06T07:41:59.281Z,73.02
2018-03-06T07:44:30.098Z,71.20
2018-03-06T07:47:01.041Z,72.24
2018-03-06T07:49:31.877Z,73.00
2018-03-06T07:52:03.656Z,74.40
2018-03-06T07:54:34.522Z,73.43
2018-03-06T07:57:05.390Z,72.28
2018-03-06T07:59:36.201Z,70.02
2018-03-06T08:02:07.054Z,70.50
2018-03-06T08:04:37.856Z,69.02
2018-03-06T08:07:08.677Z,69.21
2018-03-06T08:09:39.534Z,68.78
2018-03-06T08:12:10.347Z,68.51
2018-03-06T08:14:41.155Z,69.22
2018-03-06T08:17:11.974Z,68.32
2018-03-06T08:19:42.809Z,67.76
2018-03-06T08:22:13.646Z,66.71
2018-03-06T08:24:44.499Z,67.84
2018-03-06T08:27:15.342Z,66.30
2018-03-06T08:29:46.191Z,67.61
2018-03-06T08:32:17.023Z,65.86
2018-03-06T08:34:47.848Z,64.94
2018-03-06T08:37:18.718Z,65.03
2018-03-06T08:39:49.557Z,64.76
2018-03-06T08:42:23.501Z,63.34
2018-03-06T08:44:54.332Z,62.85
2018-03-06T08:47:25.188Z,63.52
2018-03-06T08:49:55.967Z,62.22
2018-03-06T08:52:28.897Z,61.08
2018-03-06T08:54:59.691Z,60.65
2018-03-06T08:57:31.548Z,61.44
2018-03-06T09:00:02.441Z,61.33
2018-03-06T09:02:33.308Z,61.24
2018-03-06T09:05:04.113Z,61.33
2018-03-06T09:07:34.957Z,61.29
2018-03-06T09:10:05.834Z,62.80
2018-03-06T09:12:36.693Z,61.33
2018-03-06T09:15:07.598Z,62.32
2018-03-06T09:17:38.473Z,58.82
2018-03-06T09:20:09.309Z,58.89
2018-03-06T09:22:40.138Z,61.07
2018-03-06T09:25:10.958Z,60.01
2018-03-06T09:27:41.741Z,58.85
2018-03-06T09:30:12.570Z,60.00
2018-03-06T09:32:43.366Z,59.85
2018-03-06T09:35:14.162Z,58.94
2018-03-06T09:37:44.959Z,57.40
2018-03-06T09:40:15.885Z,57.84
2018-03-06T09:42:46.699Z,61.02
2018-03-06T09:45:17.525Z,59.40
2018-03-06T09:47:48.361Z,59.68
2018-03-06T09:50:19.223Z,56.92
2018-03-06T09:52:51.026Z,57.67
2018-03-06T09:55:21.850Z,57.43
2018-03-06T09:57:52.661Z,58.53
2018-03-06T10:00:23.467Z,58.20
2018-03-06T10:02:55.306Z,57.58
2018-03-06T10:05:26.133Z,58.04
2018-03-06T10:07:56.956Z,58.51
2018-03-06T10:10:27.796Z,59.10
2018-03-06T10:12:58.635Z,57.87
2018-03-06T10:15:29.473Z,59.00
2018-03-06T10:18:00.281Z,56.77
2018-03-06T10:20:31.093Z,56.85
2018-03-06T10:23:01.905Z,55.74
2018-03-06T10:25:33.446Z,58.36
2018-03-06T10:28:04.290Z,57.19
2018-03-06T10:30:35.090Z,56.03
2018-03-06T10:33:05.899Z,57.12
2018-03-06T10:35:36.732Z,56.54
2018-03-06T10:38:07.583Z,55.11
2018-03-06T10:40:39.035Z,54.20
2018-03-06T10:43:09.857Z,55.99
2018-03-06T10:45:40.672Z,55.14
2018-03-06T10:48:11.470Z,55.50
2018-03-06T10:50:42.310Z,55.29
2018-03-06T10:53:13.168Z,53.53
2018-03-06T10:55:43.990Z,53.06
2018-03-06T10:58:14.790Z,54.89
2018-03-06T11:00:46.566Z,53.65
2018-03-06T11:03:22.368Z,53.96
2018-03-06T11:05:53.199Z,56.32
2018-03-06T11:08:24.006Z,54.73
2018-03-06T11:10:54.834Z,57.90
2018-03-06T11:13:25.632Z,54.05
2018-03-06T11:15:56.478Z,53.30
2018-03-06T11:18:27.338Z,56.51
2018-03-06T11:20:58.230Z,55.11
2018-03-06T11:23:29.126Z,53.16
2018-03-06T11:25:59.948Z,51.40
2018-03-06T11:28:30.730Z,56.51
2018-03-06T11:31:01.610Z,52.21
2018-03-06T11:33:32.405Z,51.22
2018-03-06T11:36:03.364Z,49.79
2018-03-06T11:38:34.226Z,50.22
2018-03-06T11:41:06.097Z,53.00
2018-03-06T11:43:36.905Z,51.44
2018-03-06T11:46:07.726Z,52.82
2018-03-06T11:48:38.534Z,53.92
2018-03-06T11:51:09.326Z,51.84
2018-03-06T11:53:40.186Z,48.31
2018-03-06T11:56:11.046Z,51.15
2018-03-06T11:58:41.849Z,46.76
2018-03-06T12:01:13.736Z,45.38
2018-03-06T12:03:45.654Z,48.14
2018-03-06T12:06:16.509Z,49.66
2018-03-06T12:08:47.371Z,51.03
2018-03-06T12:11:18.421Z,48.77
2018-03-06T12:13:49.235Z,50.05
2018-03-06T12:16:20.134Z,49.94
2018-03-06T12:18:50.929Z,51.54
2018-03-06T12:21:21.805Z,53.56
2018-03-06T12:23:52.621Z,52.44
2018-03-06T12:26:23.464Z,52.64
2018-03-06T12:28:54.269Z,52.69
2018-03-06T12:31:25.082Z,50.75
2018-03-06T12:33:55.873Z,51.32
2018-03-06T12:36:26.710Z,53.50
2018-03-06T12:38:57.526Z,50.31
2018-03-06T12:41:28.406Z,49.86
2018-03-06T12:43:59.198Z,47.43
2018-03-06T12:46:29.998Z,48.16
2018-03-06T12:49:00.792Z,49.28
2018-03-06T12:51:31.601Z,50.94
2018-03-06T12:54:02.423Z,49.20
2018-03-06T12:56:33.241Z,51.59
2018-03-06T12:59:04.055Z,52.47
2018-03-06T13:01:34.911Z,50.80
2018-03-06T13:04:05.725Z,49.24
2018-03-06T13:06:37.590Z,47.60
2018-03-06T13:09:08.413Z,48.47
2018-03-06T13:11:39.300Z,53.03
2018-03-06T13:14:10.135Z,49.96
2018-03-06T13:16:41.040Z,51.38
2018-03-06T13:19:11.867Z,48.72
2018-03-06T13:21:42.878Z,49.08
2018-03-06T13:24:14.313Z,49.66
2018-03-06T13:26:45.153Z,48.10
2018-03-06T13:29:15.957Z,50.03
2018-03-06T13:31:46.783Z,52.27
2018-03-06T13:34:17.706Z,51.14
2018-03-06T13:36:48.641Z,50.21
2018-03-06T13:39:19.453Z,51.24
2018-03-06T13:41:50.268Z,54.57
2018-03-06T13:44:21.097Z,53.29
2018-03-06T13:46:51.937Z,53.99
2018-03-06T13:49:22.750Z,54.43
2018-03-06T13:51:53.586Z,52.24
2018-03-06T13:54:24.416Z,54.24
2018-03-06T13:56:55.273Z,56.67
2018-03-06T13:59:26.113Z,56.70
2018-03-06T14:02:00.551Z,53.72
2018-03-06T14:04:31.351Z,58.31
2018-03-06T14:07:02.171Z,56.11
2018-03-06T14:09:32.949Z,54.61
2018-03-06T14:12:03.835Z,55.36
2018-03-06T14:14:35.754Z,55.23
2018-03-06T14:17:06.594Z,56.54
2018-03-06T14:19:37.407Z,59.37
2018-03-06T14:22:08.250Z,58.58
2018-03-06T14:24:39.032Z,60.30
2018-03-06T14:27:10.888Z,58.63
2018-03-06T14:29:41.688Z,60.11
2018-03-06T14:32:12.572Z,61.30
2018-03-06T14:34:43.401Z,60.11
2018-03-06T14:37:14.248Z,58.86
2018-03-06T14:39:45.089Z,59.07
2018-03-06T14:42:15.926Z,58.56
2018-03-06T14:44:46.741Z,58.40
2018-03-06T14:47:17.626Z,58.79
2018-03-06T14:49:48.460Z,61.33
2018-03-06T14:52:19.317Z,60.08
2018-03-06T14:54:51.166Z,60.79
2018-03-06T14:57:22.141Z,60.71
2018-03-06T14:59:52.950Z,62.29
2018-03-06T15:02:23.869Z,61.43
2018-03-06T15:04:54.726Z,62.19
2018-03-06T15:07:25.627Z,62.01
2018-03-06T15:09:57.517Z,61.95
2018-03-06T15:12:28.433Z,61.63
2018-03-06T15:14:59.373Z,62.54
2018-03-06T15:17:30.328Z,62.35
2018-03-06T15:20:01.187Z,62.57
2018-03-06T15:22:32.106Z,62.44
2018-03-06T15:25:02.959Z,63.60
2018-03-06T15:27:33.906Z,64.26
2018-03-06T15:30:04.818Z,63.85
2018-03-06T15:32:35.654Z,65.12
2018-03-06T15:35:06.494Z,65.66
2018-03-06T15:37:37.321Z,65.74
2018-03-06T15:40:08.113Z,65.75
2018-03-06T15:42:39.961Z,65.43
2018-03-06T15:45:11.835Z,66.35
2018-03-06T15:47:42.751Z,67.09
2018-03-06T15:50:13.557Z,68.09
2018-03-06T15:52:44.406Z,68.50
2018-03-06T15:55:15.261Z,68.27
2018-03-06T15:57:46.137Z,69.87
2018-03-06T16:00:16.936Z,70.78
2018-03-06T16:02:47.756Z,72.97
2018-03-06T16:05:18.597Z,74.38
2018-03-06T16:07:49.468Z,74.93
2018-03-06T16:10:20.382Z,76.19
2018-03-06T16:12:51.298Z,78.21
2018-03-06T16:15:23.032Z,77.31
2018-03-06T16:17:53.858Z,78.30
2018-03-06T16:20:24.775Z,78.91
2018-03-06T16:22:55.629Z,78.98
2018-03-06T16:25:26.471Z,80.83
2018-03-06T16:27:57.304Z,80.38
2018-03-06T16:30:29.188Z,81.60
2018-03-06T16:33:00.020Z,82.99
2018-03-06T16:35:30.821Z,83.73
2018-03-06T16:38:01.660Z,85.13
2018-03-06T16:40:32.501Z,85.77
2018-03-06T16:43:03.365Z,85.63
2018-03-06T16:45:36.186Z,86.71
2018-03-06T16:48:07.052Z,86.70
2018-03-06T16:50:37.890Z,87.80
2018-03-06T16:53:08.726Z,87.85
2018-03-06T16:55:39.527Z,88.43
2018-03-06T16:58:10.410Z,88.88
2018-03-06T17:00:41.207Z,88.78
2018-03-06T17:03:12.030Z,88.85
2018-03-06T17:05:42.802Z,89.47
2018-03-06T17:08:13.751Z,89.18
2018-03-06T17:10:44.557Z,89.94
2018-03-06T17:13:15.399Z,89.68
2018-03-06T17:15:46.205Z,89.49
2018-03-06T17:18:17.038Z,89.97
2018-03-06T17:20:47.825Z,90.10
2018-03-06T17:23:18.699Z,90.15
2018-03-06T17:25:49.510Z,90.25
2018-03-06T17:28:20.322Z,90.32
2018-03-06T17:30:51.143Z,90.75
2018-03-06T17:33:21.943Z,90.40
2018-03-06T17:35:52.744Z,90.12
2018-03-06T17:38:23.526Z,90.86
2018-03-06T17:40:54.344Z,90.84
2018-03-06T17:43:25.162Z,90.87
2018-03-06T17:45:55.951Z,91.17
2018-03-06T17:48:26.795Z,91.14
2018-03-06T17:50:57.594Z,91.08
2018-03-06T17:53:28.410Z,91.28
2018-03-06T17:55:59.260Z,91.63
2018-03-06T17:58:30.102Z,91.67
2018-03-06T18:01:00.933Z,92.06
2018-03-06T18:03:31.863Z,92.26
2018-03-06T18:06:02.717Z,92.59
2018-03-06T18:08:33.558Z,92.67
2018-03-06T18:11:04.402Z,92.48
2018-03-06T18:13:35.232Z,92.65
2018-03-06T18:16:06.038Z,92.57
2018-03-06T18:18:36.893Z,92.57
2018-03-06T18:21:07.747Z,92.48
2018-03-06T18:23:38.584Z,92.37
2018-03-06T18:26:09.423Z,92.58
2018-03-06T18:28:40.258Z,92.50
2018-03-06T18:31:11.078Z,92.53
2018-03-06T18:33:42.946Z,93.04
2018-03-06T18:36:13.741Z,92.84
2018-03-06T18:38:44.562Z,92.73
2018-03-06T18:41:15.402Z,92.60
2018-03-06T18:43:46.283Z,92.68
2018-03-06T18:46:17.115Z,92.84
2018-03-06T18:48:47.950Z,92.85
2018-03-06T18:51:18.822Z,92.59
2018-03-06T18:53:50.656Z,92.93
2018-03-06T18:56:21.525Z,92.98
2018-03-06T18:58:52.389Z,92.73
2018-03-06T19:04:52.257Z,93.02
2018-03-06T19:07:24.169Z,93.18
2018-03-06T19:09:56.018Z,93.28
2018-03-06T19:12:27.865Z,93.56
2018-03-06T19:14:58.686Z,93.64
2018-03-06T19:17:29.498Z,93.48
2018-03-06T19:20:00.358Z,93.65
2018-03-06T19:22:31.197Z,93.61
2018-03-06T19:25:02.055Z,93.44
2018-03-06T19:27:32.862Z,93.57
2018-03-06T19:30:03.703Z,93.24
2018-03-06T19:32:34.534Z,93.55
2018-03-06T19:35:05.385Z,93.49
2018-03-06T19:37:37.314Z,93.40
2018-03-06T19:40:08.167Z,93.49
2018-03-06T19:42:39.077Z,93.86
2018-03-06T19:45:10.994Z,93.68
2018-03-06T19:47:41.863Z,93.76
2018-03-06T19:50:12.721Z,93.98
2018-03-06T19:52:43.525Z,93.98
2018-03-06T19:55:14.395Z,93.85
2018-03-06T19:57:46.034Z,93.73
2018-03-06T20:00:17.914Z,93.97
2018-03-06T20:02:48.773Z,93.86
2018-03-06T20:05:19.690Z,94.24
2018-03-06T20:07:50.553Z,94.30
2018-03-06T20:10:21.402Z,94.15
2018-03-06T20:12:52.221Z,94.19
2018-03-06T20:15:23.061Z,94.41
2018-03-06T20:17:53.933Z,94.41
2018-03-06T20:20:24.882Z,94.46
2018-03-06T20:22:55.773Z,94.48
2018-03-06T20:25:32.710Z,94.51
2018-03-06T20:28:03.528Z,94.50
2018-03-06T20:30:41.495Z,94.58
2018-03-06T20:33:15.292Z,94.68
2018-03-06T20:35:46.136Z,94.70
2018-03-06T20:38:23.110Z,94.55
2018-03-06T20:40:53.990Z,94.66
2018-03-06T20:43:24.807Z,94.63
2018-03-06T20:46:01.967Z,94.69
2018-03-06T20:48:39.793Z,94.81
2018-03-06T20:51:10.768Z,94.96
2018-03-06T20:53:47.679Z,95.22
2018-03-06T20:56:19.583Z,95.29
2018-03-06T20:58:50.463Z,95.42
2018-03-06T21:01:21.321Z,95.48
2018-03-06T21:03:52.136Z,95.33
2018-03-06T21:06:22.973Z,94.94
2018-03-06T21:08:53.739Z,94.94
2018-03-06T21:11:25.502Z,95.02
2018-03-06T21:13:56.407Z,95.15
2018-03-06T21:16:27.217Z,95.17
2018-03-06T21:18:58.036Z,94.72
2018-03-06T21:21:28.971Z,94.70
2018-03-06T21:23:59.869Z,94.93
2018-03-06T21:26:30.722Z,94.89
2018-03-06T21:29:01.555Z,95.31
2018-03-06T21:31:32.424Z,95.26
2018-03-06T21:34:03.253Z,95.53
2018-03-06T21:36:34.190Z,95.71
2018-03-06T21:39:05.078Z,95.73
2018-03-06T21:41:35.902Z,95.71
2018-03-06T21:44:06.775Z,95.83
2018-03-06T21:46:37.647Z,95.67
2018-03-06T21:49:08.473Z,95.48
2018-03-06T21:51:39.319Z,95.53
2018-03-06T21:54:10.346Z,95.72
2018-03-06T21:56:41.194Z,95.82
2018-03-06T21:59:12.024Z,95.75
2018-03-06T22:01:42.855Z,95.71
2018-03-06T22:04:13.669Z,95.76
2018-03-06T22:06:44.542Z,95.90
2018-03-06T22:09:15.340Z,95.75
2018-03-06T22:11:46.150Z,95.62
2018-03-06T22:14:16.994Z,95.69
2018-03-06T22:16:47.845Z,95.88
2018-03-06T22:19:18.728Z,96.13
2018-03-06T22:21:49.545Z,95.96
2018-03-06T22:24:20.379Z,95.88
2018-03-06T22:26:51.192Z,95.95
2018-03-06T22:29:22.103Z,95.99
2018-03-06T22:31:52.968Z,96.08
2018-03-06T22:34:23.875Z,95.81
2018-03-06T22:36:54.717Z,95.76
2018-03-06T22:39:25.612Z,95.23
2018-03-06T22:41:56.440Z,95.25
2018-03-06T22:44:27.255Z,95.43
2018-03-06T22:46:58.072Z,95.40
2018-03-06T22:49:28.913Z,95.58
2018-03-06T22:51:59.722Z,95.62
2018-03-06T22:54:30.559Z,95.78
2018-03-06T22:57:01.449Z,95.74
2018-03-06T22:59:32.296Z,95.93
2018-03-06T23:02:03.133Z,96.31
2018-03-06T23:04:34.009Z,96.51
2018-03-06T23:07:04.806Z,96.61
2018-03-06T23:09:35.651Z,96.63
2018-03-06T23:12:06.501Z,96.63
2018-03-06T23:14:37.326Z,96.61
2018-03-06T23:17:08.315Z,96.74
2018-03-06T23:19:39.153Z,96.79
2018-03-06T23:22:09.983Z,96.89
2018-03-06T23:24:40.917Z,97.08
2018-03-06T23:27:11.740Z,97.15
2018-03-06T23:29:43.624Z,97.32
2018-03-06T23:32:14.420Z,97.37
2018-03-06T23:34:45.289Z,97.27
2018-03-06T23:37:16.108Z,97.32
2018-03-06T23:39:46.945Z,97.36
2018-03-06T23:42:17.781Z,97.42
2018-03-06T23:44:48.673Z,97.49
2018-03-06T23:47:19.493Z,97.56
2018-03-06T23:49:50.361Z,97.67
2018-03-06T23:52:21.174Z,97.69
2018-03-06T23:54:51.974Z,97.71
2018-03-06T23:57:22.799Z,97.80
2018-03-06T23:59:53.646Z,97.79
